sensor_id;sensor_type;location;lat;lon;timestamp;pressure;altitude;pressure_sealevel;temperature;humidity
59987;BME280;46181;51.498;5.392;2023-02-21T00:02:27;102027.1;;;13.84;60.87305
59987;BME280;46181;51.498;5.392;2023-02-21T00:06:57;102023.1;;;13.84;60.86328
59987;BME280;46181;51.498;5.392;2023-02-21T00:11:27;102027.1;;;13.82;60.85938
59987;BME280;46181;51.498;5.392;2023-02-21T00:15:58;102031.3;;;13.81;60.89258
59987;BME280;46181;51.498;5.392;2023-02-21T00:20:27;102035.8;;;13.8;60.97168
59987;BME280;46181;51.498;5.392;2023-02-21T00:24:57;102028.2;;;13.8;60.9707
59987;BME280;46181;51.498;5.392;2023-02-21T00:29:27;102029.6;;;13.79;61.03711
59987;BME280;46181;51.498;5.392;2023-02-21T00:33:57;102031.4;;;13.8;61.02734
59987;BME280;46181;51.498;5.392;2023-02-21T00:38:27;102032.5;;;13.76;61.02148
59987;BME280;46181;51.498;5.392;2023-02-21T00:42:57;102029.2;;;13.74;61.08789
59987;BME280;46181;51.498;5.392;2023-02-21T00:47:27;102023.8;;;13.71;61.11719
59987;BME280;46181;51.498;5.392;2023-02-21T00:51:57;102024.9;;;13.71;61.19531
59987;BME280;46181;51.498;5.392;2023-02-21T00:56:27;102021;;;13.7;61.25098
59987;BME280;46181;51.498;5.392;2023-02-21T01:00:57;102017.8;;;13.68;61.28223
59987;BME280;46181;51.498;5.392;2023-02-21T01:05:27;102012.1;;;13.68;61.25977
59987;BME280;46181;51.498;5.392;2023-02-21T01:09:57;102005.7;;;13.7;61.41113
59987;BME280;46181;51.498;5.392;2023-02-21T01:14:27;102003.8;;;13.73;61.3584
59987;BME280;46181;51.498;5.392;2023-02-21T01:18:57;102002;;;13.72;61.26465
59987;BME280;46181;51.498;5.392;2023-02-21T01:23:27;102000;;;13.69;61.35156
59987;BME280;46181;51.498;5.392;2023-02-21T01:27:57;102005;;;13.68;61.41895
59987;BME280;46181;51.498;5.392;2023-02-21T01:32:27;101997.2;;;13.7;61.45508
59987;BME280;46181;51.498;5.392;2023-02-21T01:36:57;101992.4;;;13.65;61.36914
59987;BME280;46181;51.498;5.392;2023-02-21T01:41:27;101995.9;;;13.66;61.53906
59987;BME280;46181;51.498;5.392;2023-02-21T01:45:59;101988.3;;;13.66;61.66504
59987;BME280;46181;51.498;5.392;2023-02-21T01:50:29;101990.2;;;13.64;61.5498
59987;BME280;46181;51.498;5.392;2023-02-21T01:54:58;101994.1;;;13.63;61.66113
59987;BME280;46181;51.498;5.392;2023-02-21T01:59:28;101988.8;;;13.63;61.67285
59987;BME280;46181;51.498;5.392;2023-02-21T02:03:58;101984.3;;;13.65;61.5957
59987;BME280;46181;51.498;5.392;2023-02-21T02:08:30;101988.6;;;13.62;61.69238
59987;BME280;46181;51.498;5.392;2023-02-21T02:13:33;101978.8;;;13.47;62.14746
59987;BME280;46181;51.498;5.392;2023-02-21T02:17:35;101975.4;;;13.54;61.96582
59987;BME280;46181;51.498;5.392;2023-02-21T02:22:16;101968.8;;;13.5;62.07227
59987;BME280;46181;51.498;5.392;2023-02-21T02:35:30;101963.5;;;13.5;62.09473
59987;BME280;46181;51.498;5.392;2023-02-21T02:40:05;101955.8;;;13.48;62.04785
59987;BME280;46181;51.498;5.392;2023-02-21T02:44:31;101949.9;;;13.51;62.02734
59987;BME280;46181;51.498;5.392;2023-02-21T02:49:01;101944.1;;;13.49;62.04785
59987;BME280;46181;51.498;5.392;2023-02-21T02:53:29;101937.8;;;13.49;62.15039
59987;BME280;46181;51.498;5.392;2023-02-21T02:57:58;101936.4;;;13.5;62.16309
59987;BME280;46181;51.498;5.392;2023-02-21T03:02:36;101936.9;;;13.46;62.20215
59987;BME280;46181;51.498;5.392;2023-02-21T03:07:01;101936.6;;;13.46;62.28125
59987;BME280;46181;51.498;5.392;2023-02-21T03:11:28;101931;;;13.47;62.25
59987;BME280;46181;51.498;5.392;2023-02-21T03:16:02;101929.4;;;13.44;62.30273
59987;BME280;46181;51.498;5.392;2023-02-21T03:20:28;101934;;;13.46;62.34863
59987;BME280;46181;51.498;5.392;2023-02-21T03:24:58;101936.1;;;13.46;62.39453
59987;BME280;46181;51.498;5.392;2023-02-21T03:29:27;101944;;;13.47;62.39648
59987;BME280;46181;51.498;5.392;2023-02-21T03:33:57;101936;;;13.49;62.45508
59987;BME280;46181;51.498;5.392;2023-02-21T03:38:27;101931.7;;;13.5;62.49121
59987;BME280;46181;51.498;5.392;2023-02-21T03:42:59;101938.4;;;13.52;62.4502
59987;BME280;46181;51.498;5.392;2023-02-21T03:47:27;101933.8;;;13.5;62.44629
59987;BME280;46181;51.498;5.392;2023-02-21T03:51:57;101930.7;;;13.52;62.38086
59987;BME280;46181;51.498;5.392;2023-02-21T03:56:27;101932.8;;;13.5;62.43457
59987;BME280;46181;51.498;5.392;2023-02-21T04:00:57;101939.1;;;13.49;62.46582
59987;BME280;46181;51.498;5.392;2023-02-21T04:05:27;101944.1;;;13.5;62.49121
59987;BME280;46181;51.498;5.392;2023-02-21T04:09:57;101938.4;;;13.52;62.55078
59987;BME280;46181;51.498;5.392;2023-02-21T04:14:27;101934.9;;;13.53;62.57422
59987;BME280;46181;51.498;5.392;2023-02-21T04:18:57;101928.6;;;13.52;62.50684
59987;BME280;46181;51.498;5.392;2023-02-21T04:23:29;101925.3;;;13.48;62.55664
59987;BME280;46181;51.498;5.392;2023-02-21T04:27:57;101921.5;;;13.48;62.51172
59987;BME280;46181;51.498;5.392;2023-02-21T04:32:27;101922.5;;;13.47;62.62305
59987;BME280;46181;51.498;5.392;2023-02-21T04:36:57;101915.5;;;13.45;62.6543
59987;BME280;46181;51.498;5.392;2023-02-21T04:41:27;101916.9;;;13.44;62.71973
59987;BME280;46181;51.498;5.392;2023-02-21T04:45:57;101911;;;13.42;62.76367
59987;BME280;46181;51.498;5.392;2023-02-21T04:50:27;101909.9;;;13.42;62.86621
59987;BME280;46181;51.498;5.392;2023-02-21T04:54:57;101911.5;;;13.4;62.88477
59987;BME280;46181;51.498;5.392;2023-02-21T04:59:27;101908.9;;;13.39;63.02051
59987;BME280;46181;51.498;5.392;2023-02-21T05:03:57;101901.9;;;13.4;62.99805
59987;BME280;46181;51.498;5.392;2023-02-21T05:08:27;101910.6;;;13.38;63.01758
59987;BME280;46181;51.498;5.392;2023-02-21T05:12:57;101907;;;13.38;63.08398
59987;BME280;46181;51.498;5.392;2023-02-21T05:17:27;101906.6;;;13.35;63.05762
59987;BME280;46181;51.498;5.392;2023-02-21T05:21:58;101909.7;;;13.31;63.14355
59987;BME280;46181;51.498;5.392;2023-02-21T05:26:31;101912.3;;;13.29;63.32031
59987;BME280;46181;51.498;5.392;2023-02-21T05:30:57;101912.1;;;13.29;63.33301
59987;BME280;46181;51.498;5.392;2023-02-21T05:35:27;101917.1;;;13.29;63.33203
59987;BME280;46181;51.498;5.392;2023-02-21T05:39:58;101915.1;;;13.31;63.4375
59987;BME280;46181;51.498;5.392;2023-02-21T05:44:27;101918.3;;;13.29;63.47949
59987;BME280;46181;51.498;5.392;2023-02-21T05:48:58;101931;;;13.32;63.50684
59987;BME280;46181;51.498;5.392;2023-02-21T05:53:27;101920.6;;;13.31;63.52734
59987;BME280;46181;51.498;5.392;2023-02-21T05:57:57;101916.3;;;13.28;63.46777
59987;BME280;46181;51.498;5.392;2023-02-21T06:02:27;101926.6;;;13.24;63.58496
59987;BME280;46181;51.498;5.392;2023-02-21T06:06:57;101923.5;;;13.19;63.66895
59987;BME280;46181;51.498;5.392;2023-02-21T06:11:31;101925.2;;;13.19;63.80469
59987;BME280;46181;51.498;5.392;2023-02-21T06:15:57;101927.1;;;13.19;63.70313
59987;BME280;46181;51.498;5.392;2023-02-21T06:20:27;101931.4;;;13.13;63.72949
59987;BME280;46181;51.498;5.392;2023-02-21T06:24:57;101929.9;;;13.07;63.80957
59987;BME280;46181;51.498;5.392;2023-02-21T06:29:27;101922.2;;;13;63.94727
59987;BME280;46181;51.498;5.392;2023-02-21T06:33:58;101924.4;;;12.97;64.06445
59987;BME280;46181;51.498;5.392;2023-02-21T06:38:27;101929.1;;;12.96;64.13281
59987;BME280;46181;51.498;5.392;2023-02-21T06:42:57;101928.9;;;12.91;64.1709
59987;BME280;46181;51.498;5.392;2023-02-21T06:47:27;101934.2;;;12.9;64.32813
59987;BME280;46181;51.498;5.392;2023-02-21T06:51:57;101929.4;;;12.89;64.37207
59987;BME280;46181;51.498;5.392;2023-02-21T06:56:27;101924.8;;;12.85;64.37598
59987;BME280;46181;51.498;5.392;2023-02-21T07:00:57;101932.1;;;12.85;64.5459
59987;BME280;46181;51.498;5.392;2023-02-21T07:05:27;101937.4;;;12.86;64.45703
59987;BME280;46181;51.498;5.392;2023-02-21T07:09:57;101924.4;;;12.86;64.53613
59987;BME280;46181;51.498;5.392;2023-02-21T07:14:27;101933.6;;;12.86;64.53613
59987;BME280;46181;51.498;5.392;2023-02-21T07:18:57;101935.4;;;12.85;64.55664
59987;BME280;46181;51.498;5.392;2023-02-21T07:23:27;101930.4;;;12.86;64.52441
59987;BME280;46181;51.498;5.392;2023-02-21T07:27:58;101937.1;;;12.84;64.55469
59987;BME280;46181;51.498;5.392;2023-02-21T07:32:27;101930.8;;;12.88;64.65234
59987;BME280;46181;51.498;5.392;2023-02-21T07:36:58;101931.4;;;12.88;64.55078
59987;BME280;46181;51.498;5.392;2023-02-21T07:41:27;101939.5;;;12.92;64.68066
59987;BME280;46181;51.498;5.392;2023-02-21T07:45:57;101935.5;;;12.97;64.5293
59987;BME280;46181;51.498;5.392;2023-02-21T07:50:27;101938.9;;;12.99;64.45313
59987;BME280;46181;51.498;5.392;2023-02-21T07:54:57;101940.3;;;12.99;64.49805
59987;BME280;46181;51.498;5.392;2023-02-21T07:59:27;101938.2;;;13;64.51074
59987;BME280;46181;51.498;5.392;2023-02-21T08:03:57;101939;;;12.99;64.40723
59987;BME280;46181;51.498;5.392;2023-02-21T08:08:27;101929.8;;;12.94;64.34473
59987;BME280;46181;51.498;5.392;2023-02-21T08:12:58;101941.9;;;12.91;64.46484
59987;BME280;46181;51.498;5.392;2023-02-21T08:17:27;101944.8;;;12.91;64.53223
59987;BME280;46181;51.498;5.392;2023-02-21T08:21:57;101928.1;;;12.89;64.50586
59987;BME280;46181;51.498;5.392;2023-02-21T08:26:27;101938.3;;;12.93;64.69336
59987;BME280;46181;51.498;5.392;2023-02-21T08:30:57;101949.8;;;12.96;64.62988
59987;BME280;46181;51.498;5.392;2023-02-21T08:35:27;101938.1;;;13.03;64.60449
59987;BME280;46181;51.498;5.392;2023-02-21T08:39:59;101929.5;;;13.06;64.57715
59987;BME280;46181;51.498;5.392;2023-02-21T08:44:27;101935.3;;;13.1;64.51367
59987;BME280;46181;51.498;5.392;2023-02-21T08:48:57;101939.3;;;13.15;64.55664
59987;BME280;46181;51.498;5.392;2023-02-21T08:53:27;101933.7;;;13.2;64.55176
59987;BME280;46181;51.498;5.392;2023-02-21T08:57:58;101929;;;13.28;64.38281
59987;BME280;46181;51.498;5.392;2023-02-21T09:02:29;101929.5;;;13.3;64.43164
59987;BME280;46181;51.498;5.392;2023-02-21T09:06:58;101928.7;;;13.37;64.49805
59987;BME280;46181;51.498;5.392;2023-02-21T09:11:28;101929.4;;;13.45;64.30664
59987;BME280;46181;51.498;5.392;2023-02-21T09:15:58;101924.9;;;13.47;64.27539
59987;BME280;46181;51.498;5.392;2023-02-21T09:20:28;101920.5;;;13.51;64.23438
59987;BME280;46181;51.498;5.392;2023-02-21T09:24:58;101914.7;;;13.55;64.19531
59987;BME280;46181;51.498;5.392;2023-02-21T09:29:28;101916.1;;;13.58;64.17773
59987;BME280;46181;51.498;5.392;2023-02-21T09:33:57;101907.5;;;13.6;64.1123
59987;BME280;46181;51.498;5.392;2023-02-21T09:38:27;101906.4;;;13.61;63.97852
59987;BME280;46181;51.498;5.392;2023-02-21T09:42:59;101906.4;;;13.6;64.16895
59987;BME280;46181;51.498;5.392;2023-02-21T09:47:33;101904.3;;;13.68;64.30566
59987;BME280;46181;51.498;5.392;2023-02-21T09:51:58;101906;;;13.79;64.08398
59987;BME280;46181;51.498;5.392;2023-02-21T09:56:35;101908.8;;;13.83;64.08984
59987;BME280;46181;51.498;5.392;2023-02-21T10:00:59;101913.7;;;13.96;63.92773
59987;BME280;46181;51.498;5.392;2023-02-21T10:05:38;101911.2;;;13.98;64.14551
59987;BME280;46181;51.498;5.392;2023-02-21T10:10:01;101915.2;;;14.09;63.84473
59987;BME280;46181;51.498;5.392;2023-02-21T10:14:34;101920;;;14.11;63.89258
59987;BME280;46181;51.498;5.392;2023-02-21T10:19:06;101918.1;;;14.16;63.78613
59987;BME280;46181;51.498;5.392;2023-02-21T10:23:31;101923.5;;;14.17;63.51563
59987;BME280;46181;51.498;5.392;2023-02-21T10:27:58;101919.7;;;14.16;63.55957
59987;BME280;46181;51.498;5.392;2023-02-21T10:32:28;101911.4;;;14.17;63.53809
59987;BME280;46181;51.498;5.392;2023-02-21T10:37:01;101919;;;14.13;63.30664
59987;BME280;46181;51.498;5.392;2023-02-21T10:41:28;101916.1;;;14.07;63.47852
59987;BME280;46181;51.498;5.392;2023-02-21T10:46:02;101915.6;;;14.03;63.50684
59987;BME280;46181;51.498;5.392;2023-02-21T10:50:48;101915.5;;;13.92;63.87695
59987;BME280;46181;51.498;5.392;2023-02-21T10:55:12;101926;;;14.04;63.83691
59987;BME280;46181;51.498;5.392;2023-02-21T10:59:35;101914.1;;;14.09;63.58398
59987;BME280;46181;51.498;5.392;2023-02-21T11:03:59;101910;;;14.11;63.40625
59987;BME280;46181;51.498;5.392;2023-02-21T11:08:42;101903.5;;;14.04;63.55371
59987;BME280;46181;51.498;5.392;2023-02-21T11:13:12;101901;;;14.07;63.46777
59987;BME280;46181;51.498;5.392;2023-02-21T11:17:29;101894.9;;;14.2;63.24707
59987;BME280;46181;51.498;5.392;2023-02-21T11:22:01;101893;;;14.24;63.25391
59987;BME280;46181;51.498;5.392;2023-02-21T11:26:28;101885.5;;;14.3;63.01367
59987;BME280;46181;51.498;5.392;2023-02-21T11:31:12;101879.9;;;14.24;63.20996
59987;BME280;46181;51.498;5.392;2023-02-21T11:35:36;101884.2;;;14.34;62.92969
59987;BME280;46181;51.498;5.392;2023-02-21T11:40:01;101872.2;;;14.36;62.96582
59987;BME280;46181;51.498;5.392;2023-02-21T11:44:36;101867.7;;;14.5;63.09863
59987;BME280;46181;51.498;5.392;2023-02-21T11:49:04;101863.6;;;14.63;62.81152
59987;BME280;46181;51.498;5.392;2023-02-21T11:53:33;101855.7;;;14.68;62.3418
59987;BME280;46181;51.498;5.392;2023-02-21T11:58:04;101852.8;;;14.61;62.02441
59987;BME280;46181;51.498;5.392;2023-02-21T12:02:56;101850.9;;;14.44;62.07031
59987;BME280;46181;51.498;5.392;2023-02-21T12:07:03;101850.5;;;14.4;62.3584
59987;BME280;46181;51.498;5.392;2023-02-21T12:16:06;101842.9;;;14.58;62.48633
59987;BME280;46181;51.498;5.392;2023-02-21T12:20:41;101837.1;;;14.82;62.33789
59987;BME280;46181;51.498;5.392;2023-02-21T12:25:14;101843;;;14.95;61.91406
59987;BME280;46181;51.498;5.392;2023-02-21T12:29:38;101840.6;;;15.1;61.81055
59987;BME280;46181;51.498;5.392;2023-02-21T12:34:06;101833.8;;;15.21;61.51855
59987;BME280;46181;51.498;5.392;2023-02-21T12:38:35;101828.3;;;15.31;61.19141
59987;BME280;46181;51.498;5.392;2023-02-21T12:43:24;101817.6;;;15.24;61.11426
59987;BME280;46181;51.498;5.392;2023-02-21T12:47:30;101814.2;;;15.32;60.7168
59987;BME280;46181;51.498;5.392;2023-02-21T12:52:03;101818;;;15.33;60.5127
59987;BME280;46181;51.498;5.392;2023-02-21T12:56:32;101813;;;15.34;60.3877
59987;BME280;46181;51.498;5.392;2023-02-21T13:01:01;101813.1;;;15.35;60.17285
59987;BME280;46181;51.498;5.392;2023-02-21T13:05:35;101811.6;;;15.32;60.04492
59987;BME280;46181;51.498;5.392;2023-02-21T13:10:03;101804.3;;;15.27;59.79883
59987;BME280;46181;51.498;5.392;2023-02-21T13:14:32;101803;;;15.17;59.72754
59987;BME280;46181;51.498;5.392;2023-02-21T13:19:00;101798.5;;;15.12;59.33496
59987;BME280;46181;51.498;5.392;2023-02-21T13:23:45;101794.1;;;15.03;59.37988
59987;BME280;46181;51.498;5.392;2023-02-21T13:28:04;101791;;;14.88;59.58594
59987;BME280;46181;51.498;5.392;2023-02-21T13:32:28;101787;;;14.9;59.38477
59987;BME280;46181;51.498;5.392;2023-02-21T13:36:58;101778.9;;;14.89;59.40625
59987;BME280;46181;51.498;5.392;2023-02-21T13:41:34;101772.6;;;14.87;59.42578
59987;BME280;46181;51.498;5.392;2023-02-21T13:45:58;101773.5;;;14.93;59.08203
59987;BME280;46181;51.498;5.392;2023-02-21T13:50:47;101774.5;;;14.75;59.18457
59987;BME280;46181;51.498;5.392;2023-02-21T13:55:15;101775.2;;;14.7;59.2334
59987;BME280;46181;51.498;5.392;2023-02-21T13:59:41;101775.7;;;14.67;59.27441
59987;BME280;46181;51.498;5.392;2023-02-21T14:03:58;101771.6;;;14.75;58.7627
59987;BME280;46181;51.498;5.392;2023-02-21T14:08:33;101765.8;;;14.63;58.82617
59987;BME280;46181;51.498;5.392;2023-02-21T14:12:59;101767.4;;;14.62;58.50684
59987;BME280;46181;51.498;5.392;2023-02-21T14:17:35;101763.9;;;14.48;58.76074
59987;BME280;46181;51.498;5.392;2023-02-21T14:22:01;101762.5;;;14.5;58.77441
59987;BME280;46181;51.498;5.392;2023-02-21T14:26:41;101755.9;;;14.4;58.85156
59987;BME280;46181;51.498;5.392;2023-02-21T14:31:10;101751.9;;;14.39;59.05469
59987;BME280;46181;51.498;5.392;2023-02-21T14:35:35;101745.1;;;14.45;58.87012
59987;BME280;46181;51.498;5.392;2023-02-21T14:40:01;101746.5;;;14.51;58.84473
59987;BME280;46181;51.498;5.392;2023-02-21T14:44:35;101743.4;;;14.55;58.64551
59987;BME280;46181;51.498;5.392;2023-02-21T14:49:30;101735.2;;;14.53;58.95996
59987;BME280;46181;51.498;5.392;2023-02-21T14:53:54;101728.3;;;14.54;58.74512
59987;BME280;46181;51.498;5.392;2023-02-21T14:58:27;101729.2;;;14.5;58.74023
59987;BME280;46181;51.498;5.392;2023-02-21T15:02:33;101730.3;;;14.49;58.65918
59987;BME280;46181;51.498;5.392;2023-02-21T15:07:06;101731.1;;;14.45;58.62109
59987;BME280;46181;51.498;5.392;2023-02-21T15:11:31;101727.7;;;14.43;58.45801
59987;BME280;46181;51.498;5.392;2023-02-21T15:16:03;101728.6;;;14.37;58.70117
59987;BME280;46181;51.498;5.392;2023-02-21T15:20:28;101729.8;;;14.44;58.69824
59987;BME280;46181;51.498;5.392;2023-02-21T15:25:22;101723.8;;;14.28;59.0752
59987;BME280;46181;51.498;5.392;2023-02-21T15:29:28;101728;;;14.35;58.62891
59987;BME280;46181;51.498;5.392;2023-02-21T15:34:00;101724.9;;;14.3;58.73633
59987;BME280;46181;51.498;5.392;2023-02-21T15:38:32;101718.5;;;14.22;58.75977
59987;BME280;46181;51.498;5.392;2023-02-21T15:42:59;101718.6;;;14.22;58.7373
59987;BME280;46181;51.498;5.392;2023-02-21T15:47:29;101717.8;;;14.17;58.85449
59987;BME280;46181;51.498;5.392;2023-02-21T15:51:58;101713.5;;;14.11;58.70996
59987;BME280;46181;51.498;5.392;2023-02-21T15:56:33;101710;;;13.92;58.91309
59987;BME280;46181;51.498;5.392;2023-02-21T16:01:10;101712;;;13.8;59.10059
59987;BME280;46181;51.498;5.392;2023-02-21T16:05:35;101708.9;;;13.76;59.21973
59987;BME280;46181;51.498;5.392;2023-02-21T16:10:06;101711.8;;;13.74;59.33105
59987;BME280;46181;51.498;5.392;2023-02-21T16:14:37;101708.6;;;13.65;59.2959
59987;BME280;46181;51.498;5.392;2023-02-21T16:19:02;101710.6;;;13.59;59.51465
59987;BME280;46181;51.498;5.392;2023-02-21T16:23:39;101706.5;;;13.53;59.61914
59987;BME280;46181;51.498;5.392;2023-02-21T16:27:59;101711.5;;;13.62;59.59766
59987;BME280;46181;51.498;5.392;2023-02-21T16:32:28;101705.7;;;13.6;59.53809
59987;BME280;46181;51.498;5.392;2023-02-21T16:37:03;101708.1;;;13.62;59.50684
59987;BME280;46181;51.498;5.392;2023-02-21T16:41:28;101706.6;;;13.56;59.41895
59987;BME280;46181;51.498;5.392;2023-02-21T16:45:59;101700;;;13.52;59.54004
59987;BME280;46181;51.498;5.392;2023-02-21T16:50:30;101696.6;;;13.52;59.69727
59987;BME280;46181;51.498;5.392;2023-02-21T16:54:58;101696.3;;;13.5;59.68359
59987;BME280;46181;51.498;5.392;2023-02-21T16:59:29;101696.2;;;13.47;59.63379
59987;BME280;46181;51.498;5.392;2023-02-21T17:03:58;101695.5;;;13.41;59.61523
59987;BME280;46181;51.498;5.392;2023-02-21T17:08:28;101695.6;;;13.36;59.62988
59987;BME280;46181;51.498;5.392;2023-02-21T17:12:58;101691.5;;;13.29;59.66504
59987;BME280;46181;51.498;5.392;2023-02-21T17:17:28;101693;;;13.2;59.69922
59987;BME280;46181;51.498;5.392;2023-02-21T17:21:58;101697.3;;;13.14;59.83789
59987;BME280;46181;51.498;5.392;2023-02-21T17:26:28;101698.6;;;13.1;59.94531
59987;BME280;46181;51.498;5.392;2023-02-21T17:30:58;101700.4;;;13.09;59.99023
59987;BME280;46181;51.498;5.392;2023-02-21T17:35:29;101701.8;;;13.07;59.87305
59987;BME280;46181;51.498;5.392;2023-02-21T17:39:59;101695;;;13.02;59.92285
59987;BME280;46181;51.498;5.392;2023-02-21T17:44:28;101696.5;;;12.99;59.90723
59987;BME280;46181;51.498;5.392;2023-02-21T17:48:58;101690.8;;;12.93;59.92383
59987;BME280;46181;51.498;5.392;2023-02-21T17:53:28;101690.3;;;12.92;59.89746
59987;BME280;46181;51.498;5.392;2023-02-21T17:57:58;101687.3;;;12.9;59.9873
59987;BME280;46181;51.498;5.392;2023-02-21T18:02:28;101695;;;12.89;59.83789
59987;BME280;46181;51.498;5.392;2023-02-21T18:06:58;101698.2;;;12.83;59.83008
59987;BME280;46181;51.498;5.392;2023-02-21T18:11:28;101697.6;;;12.82;59.91797
59987;BME280;46181;51.498;5.392;2023-02-21T18:15:58;101698;;;12.83;59.93164
59987;BME280;46181;51.498;5.392;2023-02-21T18:20:28;101696.6;;;12.8;59.74609
59987;BME280;46181;51.498;5.392;2023-02-21T18:24:58;101689.1;;;12.8;59.80273
59987;BME280;46181;51.498;5.392;2023-02-21T18:29:28;101683.1;;;12.8;59.89355
59987;BME280;46181;51.498;5.392;2023-02-21T18:33:58;101676.5;;;12.77;59.87793
59987;BME280;46181;51.498;5.392;2023-02-21T18:38:28;101676.2;;;12.77;59.87695
59987;BME280;46181;51.498;5.392;2023-02-21T18:42:58;101672.5;;;12.77;59.86719
59987;BME280;46181;51.498;5.392;2023-02-21T18:47:28;101678.9;;;12.73;59.89551
59987;BME280;46181;51.498;5.392;2023-02-21T18:51:58;101678.1;;;12.75;59.9082
59987;BME280;46181;51.498;5.392;2023-02-21T18:56:28;101673.3;;;12.78;59.86816
59987;BME280;46181;51.498;5.392;2023-02-21T19:00:58;101672.1;;;12.8;59.83691
59987;BME280;46181;51.498;5.392;2023-02-21T19:05:29;101664.3;;;12.82;59.8291
59987;BME280;46181;51.498;5.392;2023-02-21T19:09:58;101655.4;;;12.81;59.63379
59987;BME280;46181;51.498;5.392;2023-02-21T19:14:28;101651;;;12.75;59.71582
59987;BME280;46181;51.498;5.392;2023-02-21T19:18:58;101645.7;;;12.76;59.75293
59987;BME280;46181;51.498;5.392;2023-02-21T19:23:28;101640.8;;;12.75;59.73828
59987;BME280;46181;51.498;5.392;2023-02-21T19:27:58;101643.6;;;12.75;59.78516
59987;BME280;46181;51.498;5.392;2023-02-21T19:32:28;101642.7;;;12.76;59.74121
59987;BME280;46181;51.498;5.392;2023-02-21T19:36:58;101632.7;;;12.75;59.70605
59987;BME280;46181;51.498;5.392;2023-02-21T19:41:28;101634.5;;;12.69;59.68652
59987;BME280;46181;51.498;5.392;2023-02-21T19:45:58;101634.7;;;12.66;59.73926
59987;BME280;46181;51.498;5.392;2023-02-21T19:50:28;101624.5;;;12.6;59.60742
59987;BME280;46181;51.498;5.392;2023-02-21T19:54:58;101623.5;;;12.6;59.80957
59987;BME280;46181;51.498;5.392;2023-02-21T19:59:28;101620.1;;;12.62;59.80078
59987;BME280;46181;51.498;5.392;2023-02-21T20:03:58;101613.4;;;12.6;59.66406
59987;BME280;46181;51.498;5.392;2023-02-21T20:08:28;101613.8;;;12.58;59.6377
59987;BME280;46181;51.498;5.392;2023-02-21T20:12:58;101619.2;;;12.55;59.65625
59987;BME280;46181;51.498;5.392;2023-02-21T20:17:28;101620.9;;;12.54;59.75586
59987;BME280;46181;51.498;5.392;2023-02-21T20:21:58;101627.7;;;12.54;59.72168
59987;BME280;46181;51.498;5.392;2023-02-21T20:26:28;101628.7;;;12.54;59.7666
59987;BME280;46181;51.498;5.392;2023-02-21T20:30:58;101624.9;;;12.53;59.78809
59987;BME280;46181;51.498;5.392;2023-02-21T20:35:28;101618;;;12.53;59.94629
59987;BME280;46181;51.498;5.392;2023-02-21T20:39:59;101622.8;;;12.55;59.81445
59987;BME280;46181;51.498;5.392;2023-02-21T20:44:31;101614.9;;;12.55;59.87109
59987;BME280;46181;51.498;5.392;2023-02-21T20:48:58;101609.2;;;12.56;59.81543
59987;BME280;46181;51.498;5.392;2023-02-21T20:53:28;101606.2;;;12.53;59.84473
59987;BME280;46181;51.498;5.392;2023-02-21T20:57:58;101608;;;12.5;59.77344
59987;BME280;46181;51.498;5.392;2023-02-21T21:02:28;101602.8;;;12.45;59.69824
59987;BME280;46181;51.498;5.392;2023-02-21T21:06:59;101597.8;;;12.39;59.65723
59987;BME280;46181;51.498;5.392;2023-02-21T21:11:28;101593.9;;;12.32;59.64746
59987;BME280;46181;51.498;5.392;2023-02-21T21:15:58;101591.9;;;12.29;59.74512
59987;BME280;46181;51.498;5.392;2023-02-21T21:20:29;101591.8;;;12.29;59.80176
59987;BME280;46181;51.498;5.392;2023-02-21T21:24:58;101587.2;;;12.28;59.81152
59987;BME280;46181;51.498;5.392;2023-02-21T21:29:28;101593.4;;;12.28;59.72168
59987;BME280;46181;51.498;5.392;2023-02-21T21:33:58;101580.1;;;12.31;59.79297
59987;BME280;46181;51.498;5.392;2023-02-21T21:38:28;101578.5;;;12.32;59.7041
59987;BME280;46181;51.498;5.392;2023-02-21T21:43:00;101562.3;;;12.26;59.70605
59987;BME280;46181;51.498;5.392;2023-02-21T21:47:29;101567.2;;;12.26;59.82031
59987;BME280;46181;51.498;5.392;2023-02-21T21:51:58;101565.2;;;12.28;59.83301
59987;BME280;46181;51.498;5.392;2023-02-21T21:56:30;101553.3;;;12.23;59.75879
59987;BME280;46181;51.498;5.392;2023-02-21T22:00:58;101543.4;;;12.2;59.75391
59987;BME280;46181;51.498;5.392;2023-02-21T22:05:29;101534.3;;;12.13;59.75781
59987;BME280;46181;51.498;5.392;2023-02-21T22:09:58;101533.3;;;12.1;59.84375
59987;BME280;46181;51.498;5.392;2023-02-21T22:14:29;101526.3;;;12.06;59.86035
59987;BME280;46181;51.498;5.392;2023-02-21T22:18:59;101515.8;;;12.01;59.89941
59987;BME280;46181;51.498;5.392;2023-02-21T22:23:29;101513.9;;;11.94;59.84277
59987;BME280;46181;51.498;5.392;2023-02-21T22:27:59;101510.1;;;11.85;59.95703
59987;BME280;46181;51.498;5.392;2023-02-21T22:32:28;101506.6;;;11.83;60.13379
59987;BME280;46181;51.498;5.392;2023-02-21T22:36:59;101505.2;;;11.84;60.08984
59987;BME280;46181;51.498;5.392;2023-02-21T22:41:30;101503.3;;;11.82;60.16504
59987;BME280;46181;51.498;5.392;2023-02-21T22:45:58;101494.5;;;11.86;60.23926
59987;BME280;46181;51.498;5.392;2023-02-21T22:50:29;101492.5;;;11.87;60.25195
59987;BME280;46181;51.498;5.392;2023-02-21T22:54:58;101491.6;;;11.88;60.23145
59987;BME280;46181;51.498;5.392;2023-02-21T22:59:29;101473.5;;;11.86;60.17188
59987;BME280;46181;51.498;5.392;2023-02-21T23:03:58;101470.7;;;11.89;60.18652
59987;BME280;46181;51.498;5.392;2023-02-21T23:08:29;101460.9;;;11.83;60.06641
59987;BME280;46181;51.498;5.392;2023-02-21T23:12:58;101459.1;;;11.81;59.97266
59987;BME280;46181;51.498;5.392;2023-02-21T23:17:28;101450.2;;;11.77;60.16992